createdAt,value
2019-01-18T00:00:28.001Z,1002.53
2019-01-18T00:01:28.179Z,1002.52
2019-01-18T00:02:28.716Z,1002.50
2019-01-18T00:03:28.784Z,1002.52
2019-01-18T00:04:28.874Z,1002.53
2019-01-18T00:05:28.974Z,1002.59
2019-01-18T00:06:29.090Z,1002.58
2019-01-18T00:07:29.212Z,1002.57
2019-01-18T00:08:29.295Z,1002.52
2019-01-18T00:09:29.386Z,1002.60
2019-01-18T00:10:29.425Z,1002.59
2019-01-18T00:11:29.619Z,1002.59
2019-01-18T00:12:29.671Z,1002.67
2019-01-18T00:13:29.729Z,1002.60
2019-01-18T00:14:29.781Z,1002.56
2019-01-18T00:15:29.878Z,1002.64
2019-01-18T00:16:29.939Z,1002.63
2019-01-18T00:17:30.057Z,1002.67
2019-01-18T00:18:30.110Z,1002.66
2019-01-18T00:19:30.182Z,1002.62
2019-01-18T00:20:30.281Z,1002.66
2019-01-18T00:21:30.325Z,1002.63
2019-01-18T00:22:30.424Z,1002.80
2019-01-18T00:23:30.518Z,1002.76
2019-01-18T00:24:30.601Z,1002.61
2019-01-18T00:25:30.696Z,1002.80
2019-01-18T00:26:30.734Z,1002.71
2019-01-18T00:27:30.782Z,1002.65
2019-01-18T00:28:30.824Z,1002.74
2019-01-18T00:29:30.883Z,1002.72
2019-01-18T00:30:30.882Z,1002.72
2019-01-18T00:31:30.893Z,1002.77
2019-01-18T00:32:30.985Z,1002.72
2019-01-18T00:33:31.091Z,1002.84
2019-01-18T00:34:31.151Z,1002.85
2019-01-18T00:35:31.213Z,1002.79
2019-01-18T00:36:31.222Z,1002.84
2019-01-18T00:37:31.060Z,1002.87
2019-01-18T00:38:31.394Z,1002.79
2019-01-18T00:39:31.879Z,1002.85
2019-01-18T00:40:32.129Z,1002.87
2019-01-18T00:41:32.439Z,1002.77
2019-01-18T00:42:33.010Z,1002.80
2019-01-18T00:43:32.774Z,1002.87
2019-01-18T00:44:33.310Z,1002.85
2019-01-18T00:45:33.054Z,1002.87
2019-01-18T00:46:33.361Z,1002.85
2019-01-18T00:47:33.868Z,1002.83
2019-01-18T00:48:33.612Z,1002.79
2019-01-18T00:49:33.965Z,1002.77
2019-01-18T00:50:34.214Z,1002.68
2019-01-18T00:51:34.599Z,1002.77
2019-01-18T00:52:34.880Z,1002.76
2019-01-18T00:53:35.128Z,1002.83
2019-01-18T00:54:35.451Z,1002.92
2019-01-18T00:55:35.924Z,1002.85
2019-01-18T00:56:36.166Z,1002.87
2019-01-18T00:57:36.436Z,1002.96
2019-01-18T00:58:36.781Z,1002.88
2019-01-18T00:59:37.046Z,1002.97
2019-01-18T01:00:37.283Z,1003.02
2019-01-18T01:01:37.811Z,1003.02
2019-01-18T01:02:37.627Z,1003.06
2019-01-18T01:03:37.995Z,1003.07
2019-01-18T01:04:38.384Z,1003.08
2019-01-18T01:05:38.687Z,1003.08
2019-01-18T01:06:39.141Z,1003.02
2019-01-18T01:07:39.369Z,1003.14
2019-01-18T01:08:39.827Z,1003.19
2019-01-18T01:09:40.246Z,1003.15
2019-01-18T01:10:40.833Z,1003.20
2019-01-18T01:11:40.890Z,1003.14
2019-01-18T01:12:40.977Z,1003.19
2019-01-18T01:13:41.105Z,1003.29
2019-01-18T01:14:41.263Z,1003.19
2019-01-18T01:15:41.342Z,1003.20
2019-01-18T01:16:41.458Z,1003.19
2019-01-18T01:17:41.602Z,1003.19
2019-01-18T01:18:41.742Z,1003.24
2019-01-18T01:19:41.845Z,1003.30
2019-01-18T01:20:41.978Z,1003.33
2019-01-18T01:21:42.079Z,1003.28
2019-01-18T01:22:42.200Z,1003.39
2019-01-18T01:23:42.306Z,1003.33
2019-01-18T01:24:42.474Z,1003.42
2019-01-18T01:25:42.628Z,1003.48
2019-01-18T01:26:42.754Z,1003.52
2019-01-18T01:27:42.862Z,1003.50
2019-01-18T01:28:43.021Z,1003.59
2019-01-18T01:29:43.262Z,1003.59
2019-01-18T01:30:43.261Z,1003.57
2019-01-18T01:31:43.353Z,1003.60
2019-01-18T01:32:43.381Z,1003.65
2019-01-18T01:33:43.449Z,1003.68
2019-01-18T01:35:43.525Z,1003.66
2019-01-18T01:36:43.561Z,1003.64
2019-01-18T01:37:43.662Z,1003.64
2019-01-18T01:38:43.834Z,1003.63
2019-01-18T01:39:43.888Z,1003.69
2019-01-18T01:40:44.041Z,1003.69
2019-01-18T01:41:44.135Z,1003.70
2019-01-18T01:42:44.236Z,1003.81
2019-01-18T01:43:44.337Z,1003.76
2019-01-18T01:44:44.473Z,1003.78
2019-01-18T01:45:44.589Z,1003.81
2019-01-18T01:46:44.675Z,1003.81
2019-01-18T01:47:44.713Z,1003.86
2019-01-18T01:48:44.797Z,1003.83
2019-01-18T01:49:44.867Z,1003.83
2019-01-18T01:50:44.925Z,1003.81
2019-01-18T01:51:45.000Z,1003.86
2019-01-18T01:52:45.035Z,1003.89
2019-01-18T01:53:45.126Z,1003.88
2019-01-18T01:54:45.177Z,1003.79
2019-01-18T01:55:45.277Z,1003.86
2019-01-18T01:56:45.368Z,1003.81
2019-01-18T01:57:45.478Z,1003.85
2019-01-18T01:58:45.588Z,1003.82
2019-01-18T01:59:49.780Z,1003.88
2019-01-18T02:00:45.794Z,1003.87
2019-01-18T02:01:45.922Z,1003.85
2019-01-18T02:02:45.946Z,1003.90
2019-01-18T02:03:45.915Z,1003.97
2019-01-18T02:04:46.208Z,1003.91
2019-01-18T02:05:46.555Z,1003.87
2019-01-18T02:06:46.802Z,1003.93
2019-01-18T02:07:47.037Z,1003.92
2019-01-18T02:08:47.338Z,1003.87
2019-01-18T02:09:47.813Z,1003.97
2019-01-18T02:10:48.229Z,1003.89
2019-01-18T02:11:48.742Z,1003.96
2019-01-18T02:12:48.480Z,1003.93
2019-01-18T02:13:48.727Z,1004.01
2019-01-18T02:14:49.030Z,1003.92
2019-01-18T02:15:49.262Z,1004.01
2019-01-18T02:16:49.732Z,1004.04
2019-01-18T02:17:50.070Z,1004.05
2019-01-18T02:18:50.331Z,1004.05
2019-01-18T02:19:50.581Z,1004.03
2019-01-18T02:20:50.828Z,1004.08
2019-01-18T02:21:51.288Z,1004.03
2019-01-18T02:22:51.683Z,1004.03
2019-01-18T02:23:51.938Z,1004.18
2019-01-18T02:24:52.407Z,1004.12
2019-01-18T02:25:52.676Z,1004.17
2019-01-18T02:26:52.931Z,1004.13
2019-01-18T02:27:53.270Z,1004.12
2019-01-18T02:28:53.849Z,1004.19
2019-01-18T02:29:56.671Z,1004.15
2019-01-18T02:30:53.820Z,1004.21
2019-01-18T02:31:54.071Z,1004.18
2019-01-18T02:32:54.312Z,1004.23
2019-01-18T02:33:54.831Z,1004.16
2019-01-18T02:34:54.564Z,1004.20
2019-01-18T02:35:54.809Z,1004.21
2019-01-18T02:36:55.124Z,1004.18
2019-01-18T02:37:55.689Z,1004.18
2019-01-18T02:38:55.710Z,1004.25
2019-01-18T02:39:55.805Z,1004.24
2019-01-18T02:40:55.866Z,1004.31
2019-01-18T02:41:55.976Z,1004.31
2019-01-18T02:42:56.064Z,1004.30
2019-01-18T02:43:56.177Z,1004.32
2019-01-18T02:44:56.247Z,1004.30
2019-01-18T02:45:56.351Z,1004.24
2019-01-18T02:46:56.470Z,1004.21
2019-01-18T02:47:56.591Z,1004.21
2019-01-18T02:48:56.673Z,1004.25
2019-01-18T02:49:56.786Z,1004.29
2019-01-18T02:50:56.898Z,1004.32
2019-01-18T02:51:57.008Z,1004.35
2019-01-18T02:52:57.128Z,1004.39
2019-01-18T02:53:57.219Z,1004.38
2019-01-18T02:54:57.393Z,1004.36
2019-01-18T02:55:57.535Z,1004.29
2019-01-18T02:56:57.650Z,1004.41
2019-01-18T02:57:57.764Z,1004.38
2019-01-18T02:58:57.868Z,1004.42
2019-01-18T03:00:04.660Z,1004.45
2019-01-18T03:00:58.091Z,1004.51
2019-01-18T03:01:58.138Z,1004.49
2019-01-18T03:02:58.221Z,1004.53
2019-01-18T03:03:58.275Z,1004.43
2019-01-18T03:04:58.313Z,1004.51
2019-01-18T03:05:58.349Z,1004.49
2019-01-18T03:06:58.381Z,1004.43
2019-01-18T03:07:58.443Z,1004.49
2019-01-18T03:08:58.505Z,1004.47
2019-01-18T03:09:58.559Z,1004.58
2019-01-18T03:10:58.636Z,1004.51
2019-01-18T03:11:58.692Z,1004.59
2019-01-18T03:12:58.778Z,1004.52
2019-01-18T03:13:58.892Z,1004.56
2019-01-18T03:14:59.005Z,1004.57
2019-01-18T03:15:59.089Z,1004.47
2019-01-18T03:16:59.204Z,1004.60
2019-01-18T03:17:59.311Z,1004.60
2019-01-18T03:18:59.425Z,1004.59
2019-01-18T03:19:59.527Z,1004.59
2019-01-18T03:20:59.571Z,1004.66
2019-01-18T03:21:59.643Z,1004.72
2019-01-18T03:22:59.681Z,1004.82
2019-01-18T03:23:59.759Z,1004.78
2019-01-18T03:24:59.810Z,1004.81
2019-01-18T03:25:59.876Z,1004.87
2019-01-18T03:26:59.985Z,1004.94
2019-01-18T03:28:00.068Z,1004.94
2019-01-18T03:29:00.114Z,1004.91
2019-01-18T03:30:00.339Z,1005.00
2019-01-18T03:31:00.332Z,1004.92
2019-01-18T03:32:00.386Z,1004.93
2019-01-18T03:33:00.491Z,1004.97
2019-01-18T03:34:00.561Z,1004.92
2019-01-18T03:35:00.649Z,1005.01
2019-01-18T03:36:00.750Z,1005.03
2019-01-18T03:37:00.887Z,1005.07
2019-01-18T03:38:00.979Z,1005.00
2019-01-18T03:39:01.101Z,1005.10
2019-01-18T03:40:01.139Z,1005.16
2019-01-18T03:41:01.222Z,1005.13
2019-01-18T03:42:01.785Z,1005.03
2019-01-18T03:43:01.963Z,1005.24
2019-01-18T03:44:01.972Z,1005.18
2019-01-18T03:45:02.091Z,1005.21
2019-01-18T03:46:02.144Z,1005.31
2019-01-18T03:47:02.282Z,1005.25
2019-01-18T03:48:02.282Z,1005.30
2019-01-18T03:49:02.519Z,1005.34
2019-01-18T03:50:03.118Z,1005.38
2019-01-18T03:51:03.390Z,1005.41
2019-01-18T03:52:03.936Z,1005.43
2019-01-18T03:53:03.702Z,1005.39
2019-01-18T03:54:04.276Z,1005.38
2019-01-18T03:55:04.039Z,1005.41
2019-01-18T03:56:04.509Z,1005.36
2019-01-18T03:57:04.729Z,1005.51
2019-01-18T03:58:04.955Z,1005.47
2019-01-18T03:59:06.463Z,1005.42
2019-01-18T04:00:05.426Z,1005.39
2019-01-18T04:01:06.034Z,1005.37
2019-01-18T04:02:05.922Z,1005.38
2019-01-18T04:03:06.350Z,1005.42
2019-01-18T04:04:06.559Z,1005.42
2019-01-18T04:05:06.814Z,1005.38
2019-01-18T04:06:07.067Z,1005.41
2019-01-18T04:07:07.392Z,1005.45
2019-01-18T04:08:07.645Z,1005.40
2019-01-18T04:09:08.081Z,1005.40
2019-01-18T04:10:08.478Z,1005.49
2019-01-18T04:11:08.448Z,1005.46
2019-01-18T04:12:08.747Z,1005.51
2019-01-18T04:13:08.968Z,1005.63
2019-01-18T04:14:09.325Z,1005.53
2019-01-18T04:16:09.730Z,1005.49
2019-01-18T04:17:10.043Z,1005.59
2019-01-18T04:18:10.677Z,1005.55
2019-01-18T04:19:10.780Z,1005.56
2019-01-18T04:20:10.861Z,1005.67
2019-01-18T04:21:10.894Z,1005.67
2019-01-18T04:22:11.008Z,1005.59
2019-01-18T04:23:11.261Z,1005.66
2019-01-18T04:24:11.436Z,1005.64
2019-01-18T04:25:11.554Z,1005.67
2019-01-18T04:26:11.659Z,1005.73
2019-01-18T04:27:11.761Z,1005.67
2019-01-18T04:28:11.869Z,1005.74
2019-01-18T04:29:11.995Z,1005.72
2019-01-18T04:30:12.145Z,1005.71
2019-01-18T04:31:12.300Z,1005.78
2019-01-18T04:32:12.503Z,1005.78
2019-01-18T04:33:12.617Z,1005.80
2019-01-18T04:34:12.728Z,1005.81
2019-01-18T04:35:12.897Z,1005.84
2019-01-18T04:36:12.984Z,1005.88
2019-01-18T04:38:13.040Z,1005.84
2019-01-18T04:39:13.159Z,1005.88
2019-01-18T04:40:13.411Z,1005.92
2019-01-18T04:41:13.639Z,1005.94
2019-01-18T04:43:13.807Z,1005.97
2019-01-18T04:44:13.943Z,1005.90
2019-01-18T04:45:14.069Z,1006.01
2019-01-18T04:46:14.160Z,1006.02
2019-01-18T04:47:14.266Z,1006.05
2019-01-18T04:48:14.351Z,1005.98
2019-01-18T04:49:14.437Z,1006.10
2019-01-18T04:50:14.589Z,1006.10
2019-01-18T04:51:14.893Z,1006.07
2019-01-18T04:52:14.964Z,1006.11
2019-01-18T04:53:15.002Z,1006.14
2019-01-18T04:54:15.071Z,1006.10
2019-01-18T04:55:15.155Z,1006.11
2019-01-18T04:56:15.181Z,1006.14
2019-01-18T04:57:15.221Z,1006.09
2019-01-18T04:58:15.301Z,1006.12
2019-01-18T04:59:15.455Z,1006.21
2019-01-18T05:00:15.550Z,1006.31
2019-01-18T05:01:15.848Z,1006.23
2019-01-18T05:02:15.892Z,1006.31
2019-01-18T05:03:15.840Z,1006.33
2019-01-18T05:04:16.308Z,1006.37
2019-01-18T05:05:16.683Z,1006.36
2019-01-18T05:06:17.006Z,1006.38
2019-01-18T05:07:17.344Z,1006.42
2019-01-18T05:08:17.720Z,1006.40
2019-01-18T05:09:18.041Z,1006.39
2019-01-18T05:10:18.601Z,1006.42
2019-01-18T05:11:18.679Z,1006.44
2019-01-18T05:12:18.931Z,1006.40
2019-01-18T05:13:19.194Z,1006.46
2019-01-18T05:14:19.458Z,1006.43
2019-01-18T05:15:19.717Z,1006.41
2019-01-18T05:16:20.040Z,1006.42
2019-01-18T05:17:20.510Z,1006.45
2019-01-18T05:18:20.980Z,1006.47
2019-01-18T05:19:21.363Z,1006.45
2019-01-18T05:20:21.604Z,1006.48
2019-01-18T05:21:21.934Z,1006.46
2019-01-18T05:22:22.374Z,1006.54
2019-01-18T05:23:22.930Z,1006.54
2019-01-18T05:24:22.688Z,1006.50
2019-01-18T05:25:22.953Z,1006.49
2019-01-18T05:26:23.205Z,1006.43
2019-01-18T05:27:23.439Z,1006.48
2019-01-18T05:28:23.695Z,1006.51
2019-01-18T05:29:24.047Z,1006.51
2019-01-18T05:30:24.302Z,1006.60
2019-01-18T05:31:24.466Z,1006.54
2019-01-18T05:32:26.332Z,1006.60
2019-01-18T05:33:25.085Z,1006.59
2019-01-18T05:34:25.618Z,1006.60
2019-01-18T05:35:25.701Z,1006.57
2019-01-18T05:36:25.821Z,1006.58
2019-01-18T05:37:25.996Z,1006.66
2019-01-18T05:38:27.790Z,1006.65
2019-01-18T05:39:28.217Z,1006.65
2019-01-18T05:40:26.446Z,1006.65
2019-01-18T05:41:26.572Z,1006.70
2019-01-18T05:42:26.756Z,1006.78
2019-01-18T05:43:26.888Z,1006.86
2019-01-18T05:44:27.017Z,1006.75
2019-01-18T05:45:27.156Z,1006.78
2019-01-18T05:46:27.290Z,1006.79
2019-01-18T05:47:27.410Z,1006.82
2019-01-18T05:48:27.540Z,1006.97
2019-01-18T05:49:27.678Z,1006.94
2019-01-18T05:50:27.783Z,1006.88
2019-01-18T05:51:28.073Z,1006.95
2019-01-18T05:52:28.187Z,1006.97
2019-01-18T05:53:28.268Z,1007.00
2019-01-18T05:54:28.298Z,1006.99
2019-01-18T05:55:28.302Z,1007.03
2019-01-18T05:56:28.372Z,1007.05
2019-01-18T05:57:28.405Z,1006.92
2019-01-18T05:58:28.435Z,1007.03
2019-01-18T05:59:28.641Z,1007.01
2019-01-18T06:00:28.660Z,1007.01
2019-01-18T06:01:29.371Z,1007.02
2019-01-18T06:02:29.211Z,1007.07
2019-01-18T06:03:29.273Z,1007.11
2019-01-18T06:04:29.314Z,1007.19
2019-01-18T06:05:29.359Z,1007.12
2019-01-18T06:06:29.409Z,1007.19
2019-01-18T06:07:29.465Z,1007.24
2019-01-18T06:08:29.507Z,1007.20
2019-01-18T06:09:29.469Z,1007.25
2019-01-18T06:10:30.004Z,1007.33
2019-01-18T06:11:30.027Z,1007.33
2019-01-18T06:12:30.055Z,1007.40
2019-01-18T06:13:30.098Z,1007.35
2019-01-18T06:14:30.139Z,1007.35
2019-01-18T06:15:30.165Z,1007.37
2019-01-18T06:16:30.214Z,1007.39
2019-01-18T06:17:30.279Z,1007.40
2019-01-18T06:18:30.317Z,1007.43
2019-01-18T06:19:30.369Z,1007.45
2019-01-18T06:20:30.404Z,1007.38
2019-01-18T06:21:30.443Z,1007.36
2019-01-18T06:22:30.504Z,1007.38
2019-01-18T06:23:30.542Z,1007.37
2019-01-18T06:24:30.590Z,1007.42
2019-01-18T06:25:30.627Z,1007.37
2019-01-18T06:26:30.675Z,1007.39
2019-01-18T06:27:30.722Z,1007.41
2019-01-18T06:28:30.756Z,1007.37
2019-01-18T06:29:30.851Z,1007.43
2019-01-18T06:30:30.987Z,1007.43
2019-01-18T06:31:30.998Z,1007.44
2019-01-18T06:32:31.371Z,1007.46
2019-01-18T06:33:31.861Z,1007.49
2019-01-18T06:34:32.103Z,1007.49
2019-01-18T06:35:32.489Z,1007.58
2019-01-18T06:36:32.906Z,1007.51
2019-01-18T06:37:33.184Z,1007.54
2019-01-18T06:38:33.485Z,1007.58
2019-01-18T06:39:33.828Z,1007.60
2019-01-18T06:40:34.143Z,1007.65
2019-01-18T06:41:34.540Z,1007.64
2019-01-18T06:42:34.820Z,1007.67
2019-01-18T06:43:35.067Z,1007.72
2019-01-18T06:44:35.330Z,1007.79
2019-01-18T06:45:35.844Z,1007.78
2019-01-18T06:46:35.836Z,1007.75
2019-01-18T06:47:36.092Z,1007.75
2019-01-18T06:48:36.401Z,1007.80
2019-01-18T06:49:36.662Z,1007.78
2019-01-18T06:50:37.045Z,1007.82
2019-01-18T06:51:37.277Z,1007.79
2019-01-18T06:52:37.555Z,1007.84
2019-01-18T06:53:37.818Z,1007.84
2019-01-18T06:54:38.419Z,1007.82
2019-01-18T06:55:38.354Z,1007.83
2019-01-18T06:56:38.794Z,1007.86
2019-01-18T06:57:39.174Z,1007.89
2019-01-18T06:58:39.529Z,1007.90
2019-01-18T06:59:39.877Z,1007.88
2019-01-18T07:00:40.267Z,1007.94
2019-01-18T07:01:40.863Z,1007.93
2019-01-18T07:02:40.939Z,1007.92
2019-01-18T07:03:40.995Z,1007.97
2019-01-18T07:04:42.420Z,1007.97
2019-01-18T07:05:41.239Z,1007.97
2019-01-18T07:06:41.357Z,1007.93
2019-01-18T07:07:41.483Z,1007.90
2019-01-18T07:08:41.560Z,1008.00
2019-01-18T07:09:41.782Z,1007.97
2019-01-18T07:10:42.000Z,1007.95
2019-01-18T07:11:42.110Z,1007.93
2019-01-18T07:12:42.205Z,1008.00
2019-01-18T07:13:42.362Z,1007.91
2019-01-18T07:14:42.447Z,1008.01
2019-01-18T07:15:42.691Z,1007.96
2019-01-18T07:16:42.831Z,1008.05
2019-01-18T07:17:42.931Z,1008.10
2019-01-18T07:18:42.966Z,1008.08
2019-01-18T07:19:43.022Z,1008.14
2019-01-18T07:20:43.097Z,1008.17
2019-01-18T07:21:43.169Z,1008.18
2019-01-18T07:22:43.221Z,1008.15
2019-01-18T07:23:43.229Z,1008.17
2019-01-18T07:24:43.279Z,1008.30
2019-01-18T07:25:43.331Z,1008.28
2019-01-18T07:26:43.463Z,1008.32
2019-01-18T07:27:43.526Z,1008.26
2019-01-18T07:28:43.387Z,1008.36
2019-01-18T07:29:44.032Z,1008.34
2019-01-18T07:30:44.123Z,1008.28
2019-01-18T07:31:44.167Z,1008.32
2019-01-18T07:32:44.227Z,1008.29
2019-01-18T07:33:44.294Z,1008.39
2019-01-18T07:34:44.357Z,1008.39
2019-01-18T07:35:44.420Z,1008.37
2019-01-18T07:36:44.500Z,1008.36
2019-01-18T07:37:44.577Z,1008.36
2019-01-18T07:38:44.630Z,1008.35
2019-01-18T07:39:44.699Z,1008.34
2019-01-18T07:40:44.766Z,1008.34
2019-01-18T07:41:44.816Z,1008.35
2019-01-18T07:42:44.875Z,1008.37
2019-01-18T07:43:44.932Z,1008.38
2019-01-18T07:44:44.964Z,1008.40
2019-01-18T07:45:45.086Z,1008.41
2019-01-18T07:46:45.150Z,1008.43
2019-01-18T07:47:45.392Z,1008.46
2019-01-18T07:48:45.444Z,1008.46
2019-01-18T07:49:45.513Z,1008.48
2019-01-18T07:50:45.725Z,1008.50
2019-01-18T07:51:45.884Z,1008.52
2019-01-18T07:52:45.945Z,1008.51
2019-01-18T07:53:46.062Z,1008.53
2019-01-18T07:54:46.026Z,1008.54
2019-01-18T07:55:46.354Z,1008.54
2019-01-18T07:56:46.831Z,1008.55
2019-01-18T07:57:47.067Z,1008.58
2019-01-18T07:58:47.286Z,1008.59
2019-01-18T07:59:47.584Z,1008.61
2019-01-18T08:00:47.840Z,1008.62
2019-01-18T08:01:48.153Z,1008.65
2019-01-18T08:02:48.501Z,1008.68
2019-01-18T08:03:48.771Z,1008.69
2019-01-18T08:04:49.149Z,1008.70
2019-01-18T08:05:49.417Z,1008.70
2019-01-18T08:06:49.681Z,1008.72
2019-01-18T08:07:49.947Z,1008.74
2019-01-18T08:08:50.329Z,1008.76
2019-01-18T08:09:50.579Z,1008.76
2019-01-18T08:10:50.804Z,1008.78
2019-01-18T08:12:51.315Z,1008.80
2019-01-18T08:13:51.095Z,1008.81
2019-01-18T08:14:51.413Z,1008.83
2019-01-18T08:15:51.748Z,1008.85
2019-01-18T08:16:52.045Z,1008.85
2019-01-18T08:17:52.353Z,1008.86
2019-01-18T08:18:52.327Z,1008.89
2019-01-18T08:19:52.877Z,1008.90
2019-01-18T08:20:52.656Z,1008.90
2019-01-18T08:21:52.910Z,1008.89
2019-01-18T08:22:53.410Z,1008.89
2019-01-18T08:23:53.749Z,1008.90
2019-01-18T08:25:53.752Z,1008.90
2019-01-18T08:27:54.053Z,1008.90
2019-01-18T08:28:54.076Z,1008.92
2019-01-18T08:29:54.340Z,1008.93
2019-01-18T08:30:54.799Z,1008.95
2019-01-18T08:31:55.142Z,1008.98
2019-01-18T08:32:55.888Z,1008.98
2019-01-18T08:33:55.992Z,1008.98
2019-01-18T08:34:56.085Z,1008.99
2019-01-18T08:35:56.196Z,1009.03
2019-01-18T08:36:56.292Z,1009.04
2019-01-18T08:37:56.401Z,1009.07
2019-01-18T08:38:56.507Z,1009.08
2019-01-18T08:39:56.643Z,1009.10
2019-01-18T08:40:56.709Z,1009.14
2019-01-18T08:41:56.815Z,1009.15
2019-01-18T08:42:56.927Z,1009.15
2019-01-18T08:43:57.058Z,1009.17
2019-01-18T08:44:57.159Z,1009.18
2019-01-18T08:45:57.284Z,1009.19
2019-01-18T08:46:57.706Z,1009.21
2019-01-18T08:47:57.889Z,1009.20
2019-01-18T08:48:58.000Z,1009.21
2019-01-18T08:49:58.040Z,1009.23
2019-01-18T08:50:58.180Z,1009.25
2019-01-18T08:51:58.237Z,1009.27
2019-01-18T08:52:58.284Z,1009.27
2019-01-18T08:53:58.322Z,1009.29
2019-01-18T08:54:58.373Z,1009.30
2019-01-18T08:55:58.450Z,1009.31
2019-01-18T08:56:58.470Z,1009.31
2019-01-18T08:57:58.573Z,1009.31
2019-01-18T08:58:58.659Z,1009.30
2019-01-18T08:59:58.714Z,1009.31
2019-01-18T09:00:58.787Z,1009.32
2019-01-18T09:01:58.868Z,1009.32
2019-01-18T09:02:58.997Z,1009.34
2019-01-18T09:03:59.102Z,1009.36
2019-01-18T09:04:59.169Z,1009.37
2019-01-18T09:05:59.257Z,1009.38
2019-01-18T09:06:59.313Z,1009.38
2019-01-18T09:07:59.383Z,1009.40
2019-01-18T09:09:59.461Z,1009.43
2019-01-18T09:10:59.560Z,1009.44
2019-01-18T09:11:59.626Z,1009.45
2019-01-18T09:12:59.671Z,1009.47
2019-01-18T09:13:59.980Z,1009.48
2019-01-18T09:14:59.826Z,1009.50
2019-01-18T09:15:59.877Z,1009.52
2019-01-18T09:16:59.914Z,1009.55
2019-01-18T09:17:59.945Z,1009.55
2019-01-18T09:18:59.993Z,1009.57
2019-01-18T09:20:02.846Z,1009.59
2019-01-18T09:21:00.325Z,1009.60
2019-01-18T09:22:00.387Z,1009.63
2019-01-18T09:23:00.434Z,1009.64
2019-01-18T09:24:00.484Z,1009.64
2019-01-18T09:25:00.596Z,1009.65
2019-01-18T09:26:00.720Z,1009.68
2019-01-18T09:27:00.772Z,1009.67
2019-01-18T09:28:00.858Z,1009.72
2019-01-18T09:29:00.900Z,1009.73
2019-01-18T09:30:00.869Z,1009.73
2019-01-18T09:31:01.043Z,1009.73
2019-01-18T09:32:01.138Z,1009.74
2019-01-18T09:33:01.160Z,1009.75
2019-01-18T09:34:01.408Z,1009.77
2019-01-18T09:35:02.036Z,1009.77
2019-01-18T09:36:02.380Z,1009.76
2019-01-18T09:37:02.414Z,1009.76
2019-01-18T09:38:02.515Z,1009.75
2019-01-18T09:39:02.772Z,1009.75
2019-01-18T09:40:02.581Z,1009.75
2019-01-18T09:41:03.083Z,1009.78
2019-01-18T09:42:02.930Z,1009.81
2019-01-18T09:43:03.202Z,1009.82
2019-01-18T09:44:03.750Z,1009.84
2019-01-18T09:45:03.689Z,1009.86
2019-01-18T09:46:03.946Z,1009.87
2019-01-18T09:47:04.001Z,1009.88
2019-01-18T09:48:04.066Z,1009.89
2019-01-18T09:49:04.250Z,1009.89
2019-01-18T09:50:04.522Z,1009.88
2019-01-18T09:51:04.657Z,1009.90
2019-01-18T09:52:04.926Z,1009.90
2019-01-18T09:53:05.176Z,1009.90
2019-01-18T09:54:05.503Z,1009.92
2019-01-18T09:55:05.786Z,1009.93
2019-01-18T09:56:06.306Z,1009.95
2019-01-18T09:57:06.971Z,1009.96
2019-01-18T09:58:06.926Z,1009.97
2019-01-18T09:59:07.382Z,1009.96
2019-01-18T10:00:07.613Z,1009.94
2019-01-18T10:01:07.877Z,1009.95
2019-01-18T10:02:08.144Z,1009.96
2019-01-18T10:03:08.362Z,1009.98
2019-01-18T10:04:08.730Z,1009.98
2019-01-18T10:05:09.078Z,1009.99
2019-01-18T10:06:09.577Z,1009.99
2019-01-18T10:07:09.834Z,1010.00
2019-01-18T10:08:10.392Z,1010.01
2019-01-18T10:09:10.312Z,1010.03
2019-01-18T10:10:10.895Z,1010.02
2019-01-18T10:11:11.384Z,1010.02
2019-01-18T10:12:11.507Z,1010.02
2019-01-18T10:13:11.628Z,1010.01
2019-01-18T10:14:11.742Z,1010.02
2019-01-18T10:15:11.879Z,1010.01
2019-01-18T10:16:12.227Z,1010.01
2019-01-18T10:17:12.320Z,1010.01
2019-01-18T10:18:12.456Z,1010.03
2019-01-18T10:19:12.462Z,1010.02
2019-01-18T10:20:12.604Z,1010.02
2019-01-18T10:21:12.930Z,1010.02
2019-01-18T10:22:13.019Z,1010.01
2019-01-18T10:23:13.073Z,1010.01
2019-01-18T10:24:13.143Z,1010.01
2019-01-18T10:25:13.291Z,1010.02
2019-01-18T10:26:13.502Z,1010.03
2019-01-18T10:27:13.590Z,1010.02
2019-01-18T10:28:13.623Z,1010.02
2019-01-18T10:29:13.679Z,1010.01
2019-01-18T10:30:13.779Z,1010.00
2019-01-18T10:31:13.993Z,1010.00
2019-01-18T10:32:14.119Z,1009.99
2019-01-18T10:33:14.293Z,1009.98
2019-01-18T10:34:14.356Z,1009.98
2019-01-18T10:35:14.530Z,1009.97
2019-01-18T10:36:14.708Z,1010.00
2019-01-18T10:37:14.755Z,1010.00
2019-01-18T10:38:14.799Z,1010.00
2019-01-18T10:39:14.822Z,1010.00
2019-01-18T10:40:14.872Z,1009.99
2019-01-18T10:41:14.899Z,1010.00
2019-01-18T10:42:14.941Z,1010.02
2019-01-18T10:43:14.978Z,1010.02
2019-01-18T10:44:14.996Z,1010.02
2019-01-18T10:45:15.035Z,1010.03
2019-01-18T10:46:15.192Z,1010.02
2019-01-18T10:47:15.231Z,1010.03
2019-01-18T10:48:15.307Z,1010.04
2019-01-18T10:49:15.355Z,1010.04
2019-01-18T10:50:15.439Z,1010.05
2019-01-18T10:51:15.508Z,1010.05
2019-01-18T10:52:15.535Z,1010.04
2019-01-18T10:53:15.594Z,1010.02
2019-01-18T10:54:15.663Z,1010.00
2019-01-18T10:55:15.737Z,1010.01
2019-01-18T10:56:16.049Z,1010.02
2019-01-18T10:57:15.979Z,1010.03
2019-01-18T10:58:16.347Z,1010.04
2019-01-18T10:59:17.740Z,1010.05
2019-01-18T11:00:17.227Z,1010.05
2019-01-18T11:01:17.267Z,1010.05
2019-01-18T11:02:17.568Z,1010.06
2019-01-18T11:03:17.928Z,1010.07
2019-01-18T11:04:18.292Z,1010.06
2019-01-18T11:05:18.890Z,1010.05
2019-01-18T11:06:18.663Z,1010.06
2019-01-18T11:07:18.882Z,1010.05
2019-01-18T11:08:19.277Z,1010.04
2019-01-18T11:09:19.699Z,1010.01
2019-01-18T11:10:19.952Z,1010.00
2019-01-18T11:11:20.184Z,1010.01
2019-01-18T11:12:20.528Z,1010.01
2019-01-18T11:13:20.771Z,1010.02
2019-01-18T11:14:21.068Z,1010.03
2019-01-18T11:15:21.317Z,1010.03
2019-01-18T11:16:21.830Z,1010.04
2019-01-18T11:17:21.867Z,1010.04
2019-01-18T11:18:21.700Z,1010.03
2019-01-18T11:19:21.947Z,1010.04
2019-01-18T11:20:22.227Z,1010.03
2019-01-18T11:21:22.355Z,1010.07
2019-01-18T11:22:22.592Z,1010.06
2019-01-18T11:23:22.903Z,1010.03
2019-01-18T11:24:23.210Z,1010.04
2019-01-18T11:25:23.684Z,1010.03
2019-01-18T11:26:23.611Z,1010.03
2019-01-18T11:27:23.867Z,1010.03
2019-01-18T11:28:24.112Z,1010.05
2019-01-18T11:29:24.478Z,1010.05
2019-01-18T11:30:24.761Z,1010.05
2019-01-18T11:31:25.110Z,1010.07
2019-01-18T11:32:25.722Z,1010.08
2019-01-18T11:33:25.945Z,1010.10
2019-01-18T11:34:25.991Z,1010.10
2019-01-18T11:35:26.080Z,1010.11
2019-01-18T11:36:26.227Z,1010.11
2019-01-18T11:37:26.410Z,1010.12
2019-01-18T11:38:26.549Z,1010.11
2019-01-18T11:39:26.649Z,1010.10
2019-01-18T11:40:26.751Z,1010.09
2019-01-18T11:41:26.874Z,1010.07
2019-01-18T11:42:27.027Z,1010.05
2019-01-18T11:43:27.205Z,1010.05
2019-01-18T11:44:27.324Z,1010.06
2019-01-18T11:45:27.469Z,1010.05
2019-01-18T11:46:27.602Z,1010.05
2019-01-18T11:47:28.414Z,1010.06
2019-01-18T11:48:27.846Z,1010.08
2019-01-18T11:49:27.998Z,1010.08
2019-01-18T11:50:28.077Z,1010.08
2019-01-18T11:51:28.124Z,1010.09
2019-01-18T11:52:28.157Z,1010.06
2019-01-18T11:53:28.298Z,1010.06
2019-01-18T11:54:28.364Z,1010.06
2019-01-18T11:55:28.472Z,1010.04
2019-01-18T11:56:28.536Z,1010.05
2019-01-18T11:57:28.590Z,1010.04
2019-01-18T11:58:28.637Z,1010.05
2019-01-18T11:59:28.842Z,1010.02
2019-01-18T12:00:28.962Z,1010.01
2019-01-18T12:01:29.057Z,1010.01
2019-01-18T12:02:29.147Z,1009.98
2019-01-18T12:03:29.264Z,1009.97
2019-01-18T12:04:29.390Z,1009.94
2019-01-18T12:05:29.463Z,1009.95
2019-01-18T12:06:29.514Z,1009.95
2019-01-18T12:07:29.571Z,1009.94
2019-01-18T12:08:29.812Z,1009.94
2019-01-18T12:09:29.842Z,1009.96
2019-01-18T12:10:29.895Z,1009.93
2019-01-18T12:11:30.271Z,1009.93
2019-01-18T12:12:29.998Z,1009.92
2019-01-18T12:13:30.074Z,1009.91
2019-01-18T12:14:30.125Z,1009.90
2019-01-18T12:15:30.181Z,1009.89